Time;durP1;ratioP1;P1;durP2;ratioP2;P2;SDS_P1;SDS_P2;PMS_P1;PMS_P2;Temp;Humidity;BMP_temperature;BMP_pressure;BME280_temperature;BME280_humidity;BME280_pressure;Samples;Min_cycle;Max_cycle;Signal;HPM_P1;HPM_P2
2022/09/29 00:00:25;;;;;;;15.88;14.52;;;6.00;99.90;;;;;;5077033;28;20082;-64
2022/09/29 00:02:52;;;;;;;14.90;13.50;;;6.10;99.90;;;;;;5046172;28;20855;-64
2022/09/29 00:05:18;;;;;;;13.80;12.40;;;5.90;99.90;;;;;;5076791;28;20043;-64
2022/09/29 00:07:44;;;;;;;12.35;11.25;;;6.30;99.90;;;;;;5060144;28;20024;-64
2022/09/29 00:10:09;;;;;;;18.48;16.67;;;5.90;99.90;;;;;;5076492;28;20085;-64
2022/09/29 00:12:35;;;;;;;16.73;15.15;;;5.80;99.90;;;;;;5058855;28;20440;-64
2022/09/29 00:15:01;;;;;;;16.48;14.82;;;5.90;99.90;;;;;;5076392;28;20168;-65
2022/09/29 00:17:26;;;;;;;14.85;13.55;;;5.90;99.90;;;;;;5076712;28;20036;-64
2022/09/29 00:19:52;;;;;;;17.00;15.32;;;6.00;99.90;;;;;;5076870;28;20042;-64
2022/09/29 00:22:18;;;;;;;16.05;14.50;;;5.80;99.90;;;;;;5076357;28;20077;-64
2022/09/29 00:24:45;;;;;;;17.75;15.95;;;6.20;99.90;;;;;;5076411;28;20040;-64
2022/09/29 00:27:14;;;;;;;16.88;15.35;;;6.20;99.90;;;;;;5093296;28;20040;-64
2022/09/29 00:29:39;;;;;;;12.18;10.98;;;6.10;99.90;;;;;;5076920;28;20401;-64
2022/09/29 00:32:05;;;;;;;15.48;13.50;;;5.70;99.90;;;;;;5076277;28;20206;-64
2022/09/29 00:34:30;;;;;;;18.15;16.23;;;6.20;99.90;;;;;;5060131;28;20171;-64
2022/09/29 00:36:56;;;;;;;18.08;16.25;;;5.70;99.90;;;;;;5076016;28;20095;-64
2022/09/29 00:39:22;;;;;;;17.27;15.43;;;6.10;99.90;;;;;;5075760;28;20095;-64
2022/09/29 00:41:48;;;;;;;18.98;15.73;;;6.20;99.90;;;;;;5059122;28;20039;-63
2022/09/29 00:44:13;;;;;;;19.38;17.08;;;6.10;99.90;;;;;;5076286;28;20203;-64
2022/09/29 00:46:47;;;;;;;19.80;17.80;;;5.80;99.90;;;;;;5058974;28;20051;-64
2022/09/29 00:49:13;;;;;;;20.38;18.30;;;5.80;99.90;;;;;;5075374;28;20210;-65
2022/09/29 00:51:43;;;;;;;23.42;20.42;;;5.80;99.90;;;;;;5076083;28;20032;-64
2022/09/29 00:54:09;;;;;;;15.75;14.25;;;5.60;99.90;;;;;;5076491;28;20413;-64
2022/09/29 00:56:38;;;;;;;19.00;17.27;;;5.90;99.90;;;;;;5059002;28;20393;-64
2022/09/29 00:59:08;;;;;;;21.63;19.05;;;5.90;99.90;;;;;;5076045;28;20140;-63
2022/09/29 01:01:34;;;;;;;25.80;22.75;;;6.00;99.90;;;;;;5058722;28;20383;-64
2022/09/29 01:04:09;;;;;;;21.80;19.60;;;5.60;99.90;;;;;;5075934;28;20125;-64
2022/09/29 01:06:42;;;;;;;25.35;22.65;;;5.70;99.90;;;;;;5076888;28;20088;-63
2022/09/29 01:09:13;;;;;;;26.13;22.98;;;6.10;99.90;;;;;;5074987;28;20086;-63
2022/09/29 01:11:39;;;;;;;28.02;24.27;;;5.90;99.90;;;;;;5076365;28;20341;-64
2022/09/29 01:14:07;;;;;;;29.33;26.17;;;6.20;99.90;;;;;;5059906;28;20555;-64
2022/09/29 01:16:35;;;;;;;27.75;24.10;;;5.70;99.90;;;;;;5080580;28;20048;-64
2022/09/29 01:19:06;;;;;;;23.95;21.40;;;5.70;99.90;;;;;;5079311;28;20083;-63
2022/09/29 01:21:35;;;;;;;29.83;25.98;;;5.90;99.90;;;;;;5080536;28;20810;-63
2022/09/29 01:24:06;;;;;;;30.35;27.23;;;5.60;99.90;;;;;;5062581;28;20063;-63
2022/09/29 01:26:54;;;;;;;32.17;28.65;;;5.90;99.90;;;;;;5062950;28;20039;-64
2022/09/29 01:30:01;;;;;;;34.15;29.13;;;5.50;99.90;;;;;;5078805;28;20032;-64
2022/09/29 01:32:46;;;;;;;32.97;28.52;;;5.40;99.90;;;;;;5079829;28;20047;-64
2022/09/29 01:35:54;;;;;;;32.90;27.10;;;5.90;99.90;;;;;;5078477;28;20131;-65
2022/09/29 01:38:30;;;;;;;26.80;24.00;;;5.80;99.90;;;;;;5056348;28;20059;-64
2022/09/29 01:40:56;;;;;;;27.58;23.33;;;6.00;99.90;;;;;;5078164;28;20177;-64
2022/09/29 01:43:34;;;;;;;29.95;26.75;;;6.00;99.90;;;;;;5079475;28;20113;-64
2022/09/29 01:46:10;;;;;;;35.72;30.02;;;5.50;99.90;;;;;;5078979;28;20035;-64
2022/09/29 01:48:42;;;;;;;39.30;30.70;;;5.40;99.90;;;;;;5079327;28;20059;-64
2022/09/29 01:51:19;;;;;;;38.85;34.28;;;5.50;99.90;;;;;;5079103;28;20275;-64
2022/09/29 01:53:52;;;;;;;37.80;30.02;;;5.90;99.90;;;;;;5078553;28;20067;-64
2022/09/29 01:56:28;;;;;;;42.80;34.03;;;5.40;99.90;;;;;;5062157;28;20051;-64
2022/09/29 01:58:58;;;;;;;49.20;37.55;;;5.50;99.90;;;;;;5078709;28;20131;-65
2022/09/29 02:01:30;;;;;;;34.08;30.20;;;5.90;99.90;;;;;;5078212;28;20040;-68
2022/09/29 02:04:13;;;;;;;45.10;34.60;;;5.50;99.90;;;;;;5078270;28;20410;-64
2022/09/29 02:06:53;;;;;;;34.25;30.17;;;5.90;99.90;;;;;;5061506;28;20051;-65
2022/09/29 02:09:23;;;;;;;44.33;36.50;;;5.90;99.90;;;;;;5078418;28;20047;-65
2022/09/29 02:11:51;;;;;;;51.45;38.47;;;5.80;99.90;;;;;;5078978;28;20612;-64
2022/09/29 02:14:28;;;;;;;30.33;27.02;;;5.60;99.90;;;;;;5078515;28;20032;-65
2022/09/29 02:17:09;;;;;;;32.97;28.33;;;5.20;99.90;;;;;;5078549;28;20094;-64
2022/09/29 02:19:39;;;;;;;50.47;40.75;;;5.80;99.90;;;;;;5078604;28;20506;-64
2022/09/29 02:22:05;;;;;;;43.92;35.20;;;5.30;99.90;;;;;;5078324;28;20048;-64
2022/09/29 02:24:31;;;;;;;39.80;33.35;;;5.80;99.90;;;;;;5077795;28;20044;-64
2022/09/29 02:26:57;;;;;;;54.05;41.58;;;5.70;99.90;;;;;;5077553;28;20043;-66
2022/09/29 02:29:23;;;;;;;57.90;41.65;;;5.70;99.90;;;;;;5078165;28;20043;-64
2022/09/29 02:31:49;;;;;;;46.72;37.28;;;5.40;99.90;;;;;;5078610;28;20051;-64
2022/09/29 02:34:21;;;;;;;58.42;41.47;;;5.40;99.90;;;;;;5060792;28;20569;-64
2022/09/29 02:37:08;;;;;;;59.95;42.78;;;5.60;99.90;;;;;;5058757;28;20135;-63
2022/09/29 02:39:40;;;;;;;37.47;32.80;;;5.30;99.90;;;;;;5078125;28;20055;-65
2022/09/29 02:42:17;;;;;;;60.60;40.85;;;5.10;99.90;;;;;;5078255;28;20051;-64
2022/09/29 02:45:22;;;;;;;35.63;30.77;;;5.50;99.90;;;;;;5077524;28;20144;-63
2022/09/29 02:48:02;;;;;;;46.72;35.45;;;5.30;99.90;;;;;;5075134;28;20039;-64
2022/09/29 02:50:44;;;;;;;46.95;35.78;;;5.40;99.90;;;;;;5094699;28;20150;-63
2022/09/29 02:53:22;;;;;;;57.50;41.97;;;5.60;99.90;;;;;;5077403;28;20152;-63
2022/09/29 02:56:07;;;;;;;56.65;38.70;;;5.60;99.90;;;;;;5077478;28;20044;-63
2022/09/29 02:58:50;;;;;;;68.00;45.95;;;5.40;99.90;;;;;;5077240;28;20047;-64
2022/09/29 03:01:16;;;;;;;67.80;47.90;;;5.10;99.90;;;;;;5094393;28;20054;-64
2022/09/29 03:03:42;;;;;;;77.43;49.97;;;5.60;99.90;;;;;;5060125;28;20515;-63
2022/09/29 03:06:09;;;;;;;51.50;39.78;;;5.60;99.90;;;;;;5064206;28;20069;-66
2022/09/29 03:08:35;;;;;;;53.50;40.17;;;5.20;99.90;;;;;;5060973;28;20213;-63
2022/09/29 03:11:01;;;;;;;61.33;45.47;;;5.20;99.90;;;;;;5060279;28;20052;-64
2022/09/29 03:13:26;;;;;;;63.03;44.20;;;5.40;99.90;;;;;;5077173;28;20048;-63
2022/09/29 03:15:52;;;;;;;71.65;48.67;;;5.40;99.90;;;;;;5077800;28;20044;-64
2022/09/29 03:18:18;;;;;;;71.25;48.55;;;5.70;99.90;;;;;;5044005;28;20044;-63
2022/09/29 03:20:44;;;;;;;49.15;39.75;;;5.60;99.90;;;;;;5077386;28;20379;-63
2022/09/29 03:23:09;;;;;;;72.90;49.65;;;5.30;99.90;;;;;;5060242;28;20047;-64
2022/09/29 03:25:35;;;;;;;83.88;52.83;;;5.40;99.90;;;;;;5060166;28;20040;-64
2022/09/29 03:28:01;;;;;;;69.00;47.78;;;5.70;99.90;;;;;;5060924;28;20032;-64
2022/09/29 03:30:26;;;;;;;63.20;45.15;;;5.20;99.90;;;;;;5077219;28;20383;-64
2022/09/29 03:32:52;;;;;;;73.25;50.42;;;5.70;99.90;;;;;;5077703;28;20394;-64
2022/09/29 03:35:18;;;;;;;70.43;48.40;;;5.30;99.90;;;;;;5059762;28;20127;-65
2022/09/29 03:37:44;;;;;;;86.63;54.70;;;5.20;99.90;;;;;;5076577;28;20063;-63
2022/09/29 03:40:10;;;;;;;86.00;54.28;;;5.60;99.90;;;;;;5077162;28;20048;-64
2022/09/29 03:42:36;;;;;;;91.55;56.92;;;5.50;99.90;;;;;;5077707;28;20044;-63
2022/09/29 03:45:02;;;;;;;77.90;49.85;;;5.20;99.90;;;;;;5060185;28;20032;-63
2022/09/29 03:47:27;;;;;;;56.60;42.72;;;5.10;99.90;;;;;;5076722;28;20047;-64
2022/09/29 03:49:53;;;;;;;70.32;49.80;;;5.10;99.90;;;;;;5076629;28;20044;-64
2022/09/29 03:52:19;;;;;;;80.20;54.70;;;5.20;99.90;;;;;;5076920;28;20032;-63
2022/09/29 03:54:44;;;;;;;82.50;53.05;;;5.70;99.90;;;;;;5076837;28;20066;-63
2022/09/29 03:57:11;;;;;;;79.07;52.47;;;5.20;99.90;;;;;;5076865;28;20070;-63
2022/09/29 03:59:36;;;;;;;73.65;49.88;;;5.60;99.90;;;;;;5060025;28;20044;-64
2022/09/29 04:02:02;;;;;;;90.80;54.70;;;5.80;99.90;;;;;;5076519;28;20044;-63
2022/09/29 04:04:28;;;;;;;91.78;56.20;;;5.30;99.90;;;;;;5060180;28;20647;-64
2022/09/29 04:06:54;;;;;;;80.78;52.38;;;5.40;99.90;;;;;;5076525;28;20110;-65
2022/09/29 04:09:19;;;;;;;84.10;52.88;;;5.10;99.90;;;;;;5059271;28;20509;-64
2022/09/29 04:11:45;;;;;;;92.05;55.78;;;5.30;99.90;;;;;;5059819;28;20083;-63
2022/09/29 04:14:11;;;;;;;71.10;47.75;;;5.70;99.90;;;;;;5076406;28;20162;-64
2022/09/29 04:16:36;;;;;;;78.57;50.38;;;5.30;99.90;;;;;;5059319;28;20104;-64
2022/09/29 04:19:02;;;;;;;96.05;55.88;;;5.60;99.90;;;;;;5059983;28;20231;-64
2022/09/29 04:21:28;;;;;;;76.25;50.85;;;5.70;99.90;;;;;;5059570;28;20044;-64
2022/09/29 04:23:53;;;;;;;106.63;58.10;;;5.10;99.90;;;;;;5076570;28;20453;-64
2022/09/29 04:26:22;;;;;;;100.15;57.13;;;5.70;99.90;;;;;;5060054;28;20059;-64
2022/09/29 04:28:48;;;;;;;90.95;54.83;;;5.20;99.90;;;;;;5060055;28;20036;-64
2022/09/29 04:31:13;;;;;;;91.60;54.38;;;5.20;99.90;;;;;;5076617;28;20475;-64
2022/09/29 04:33:40;;;;;;;91.68;54.85;;;5.70;99.90;;;;;;5076472;28;20040;-64
2022/09/29 04:36:06;;;;;;;92.50;55.42;;;5.30;99.90;;;;;;5042073;28;20077;-64
2022/09/29 04:38:32;;;;;;;95.18;55.60;;;5.60;99.90;;;;;;5076587;28;20062;-65
2022/09/29 04:40:58;;;;;;;81.05;50.97;;;5.60;99.90;;;;;;5059857;28;20044;-64
2022/09/29 04:43:23;;;;;;;106.93;58.80;;;5.10;99.90;;;;;;5062233;28;20044;-65
2022/09/29 04:45:49;;;;;;;82.07;49.53;;;5.10;99.90;;;;;;5080003;28;20072;-64
2022/09/29 04:48:15;;;;;;;100.72;55.15;;;5.40;99.90;;;;;;5065054;28;20043;-64
2022/09/29 04:50:41;;;;;;;80.32;49.00;;;5.40;99.90;;;;;;5085178;28;20440;-65
2022/09/29 04:53:08;;;;;;;90.53;54.25;;;5.50;99.90;;;;;;5068983;28;20078;-64
2022/09/29 04:55:36;;;;;;;98.18;51.22;;;5.40;99.90;;;;;;5068979;28;20289;-64
2022/09/29 04:58:02;;;;;;;81.53;50.03;;;5.00;99.90;;;;;;5085758;28;20086;-64
2022/09/29 05:00:27;;;;;;;79.60;48.97;;;5.30;99.90;;;;;;5084437;28;21113;-65
2022/09/29 05:02:53;;;;;;;89.75;53.10;;;5.60;99.90;;;;;;5062932;28;20043;-65
2022/09/29 05:05:19;;;;;;;85.85;50.50;;;5.60;99.90;;;;;;5062943;28;20040;-65
2022/09/29 05:07:44;;;;;;;101.90;55.70;;;5.60;99.90;;;;;;5062741;28;20493;-65
2022/09/29 05:10:10;;;;;;;128.43;64.55;;;5.50;99.90;;;;;;5046473;28;20040;-65
2022/09/29 05:12:36;;;;;;;97.95;57.35;;;5.60;99.90;;;;;;5080105;28;20052;-64
2022/09/29 05:15:03;;;;;;;118.18;59.90;;;4.90;99.90;;;;;;5062963;28;20501;-64
2022/09/29 05:17:29;;;;;;;89.72;53.10;;;4.90;99.90;;;;;;5045965;28;20229;-65
2022/09/29 05:19:55;;;;;;;91.97;54.85;;;5.30;99.90;;;;;;5080185;28;20131;-65
2022/09/29 05:22:23;;;;;;;98.55;53.63;;;4.80;99.90;;;;;;5079602;28;20039;-65
2022/09/29 05:24:50;;;;;;;77.85;50.97;;;4.70;99.90;;;;;;5079067;28;20048;-65
2022/09/29 05:27:16;;;;;;;68.20;46.13;;;5.10;99.90;;;;;;5077782;28;20043;-66
2022/09/29 05:29:41;;;;;;;84.13;54.47;;;4.70;99.90;;;;;;5078974;28;20433;-65
2022/09/29 05:32:07;;;;;;;91.60;51.95;;;5.10;99.90;;;;;;5046142;28;20040;-64
2022/09/29 05:34:32;;;;;;;72.45;47.47;;;4.60;99.90;;;;;;5045913;28;20052;-65
2022/09/29 05:36:58;;;;;;;82.97;51.05;;;5.10;99.90;;;;;;5080917;28;20067;-63
2022/09/29 05:39:24;;;;;;;79.97;51.13;;;4.70;99.90;;;;;;5035245;28;20050;-64
2022/09/29 05:41:49;;;;;;;93.25;55.97;;;4.80;99.90;;;;;;5045282;28;20040;-64
2022/09/29 05:44:15;;;;;;;96.60;55.58;;;4.70;99.90;;;;;;5079583;28;20067;-64
2022/09/29 05:46:41;;;;;;;91.10;53.88;;;4.80;99.90;;;;;;5078753;28;20040;-64
2022/09/29 05:49:07;;;;;;;91.30;51.85;;;4.70;99.90;;;;;;5078709;28;20043;-65
2022/09/29 05:51:32;;;;;;;104.60;56.75;;;5.00;99.90;;;;;;5080854;28;20309;-65
2022/09/29 05:53:59;;;;;;;79.10;50.22;;;4.90;99.90;;;;;;5063043;28;20040;-65
2022/09/29 05:56:25;;;;;;;77.30;48.45;;;5.30;99.90;;;;;;5080001;28;20074;-65
2022/09/29 05:58:52;;;;;;;81.30;51.72;;;5.30;99.90;;;;;;5061636;28;20066;-65
2022/09/29 06:01:25;;;;;;;64.28;44.15;;;5.00;99.90;;;;;;5078310;28;20097;-66
2022/09/29 06:03:53;;;;;;;80.07;52.63;;;4.90;99.90;;;;;;5061993;28;20344;-65
2022/09/29 06:06:22;;;;;;;63.53;43.47;;;5.40;99.90;;;;;;5095967;28;20036;-66
2022/09/29 06:08:48;;;;;;;78.20;50.75;;;5.10;99.90;;;;;;5080127;28;20236;-66
2022/09/29 06:11:22;;;;;;;77.43;51.35;;;5.00;99.90;;;;;;5062156;28;20068;-68
2022/09/29 06:13:50;;;;;;;75.13;50.05;;;5.30;99.90;;;;;;5078815;28;20059;-66
2022/09/29 06:16:18;;;;;;;70.70;47.45;;;5.30;99.90;;;;;;5061087;28;20500;-65
2022/09/29 06:18:44;;;;;;;84.82;54.53;;;5.60;99.90;;;;;;5079387;28;20100;-65
2022/09/29 06:21:17;;;;;;;89.60;55.35;;;5.60;99.90;;;;;;5061539;28;20573;-66
2022/09/29 06:23:43;;;;;;;62.28;44.83;;;5.40;99.90;;;;;;5077942;28;20048;-65
2022/09/29 06:26:11;;;;;;;54.28;42.60;;;5.40;99.90;;;;;;5078595;28;20108;-66
2022/09/29 06:28:37;;;;;;;62.13;45.20;;;5.30;99.90;;;;;;5075723;28;20054;-66
2022/09/29 06:31:18;;;;;;;76.20;51.42;;;5.40;99.90;;;;;;5061272;28;20035;-65
2022/09/29 06:33:43;;;;;;;70.30;48.83;;;5.50;99.90;;;;;;5061701;28;20492;-65
2022/09/29 06:39:06;;;;;;;73.35;51.47;;;5.70;99.90;;;;;;5076958;28;20497;-66
2022/09/29 06:41:33;;;;;;;66.78;46.72;;;6.00;99.90;;;;;;5077759;28;20082;-66
2022/09/29 06:43:58;;;;;;;61.83;44.20;;;6.10;99.90;;;;;;5061122;28;20888;-66
2022/09/29 06:46:25;;;;;;;68.72;47.28;;;6.20;99.90;;;;;;5060095;28;20519;-65
2022/09/29 06:48:52;;;;;;;69.68;50.92;;;5.80;99.90;;;;;;5076433;28;20040;-66
2022/09/29 06:51:21;;;;;;;72.00;48.72;;;6.00;99.90;;;;;;5080107;28;20044;-66
2022/09/29 06:53:47;;;;;;;62.03;45.45;;;5.90;99.90;;;;;;5082055;28;20039;-65
2022/09/29 06:56:13;;;;;;;60.42;45.00;;;6.30;99.90;;;;;;5045962;28;20043;-66
2022/09/29 06:58:39;;;;;;;57.60;42.08;;;6.10;99.90;;;;;;5077254;28;20696;-65
2022/09/29 07:01:05;;;;;;;53.47;40.33;;;6.20;99.90;;;;;;5076161;28;20067;-66
2022/09/29 07:03:32;;;;;;;52.45;40.50;;;6.60;99.90;;;;;;5060563;28;20044;-66
2022/09/29 07:06:01;;;;;;;58.97;44.03;;;6.80;99.90;;;;;;5076834;28;20490;-66
2022/09/29 07:08:27;;;;;;;55.70;40.53;;;6.90;99.90;;;;;;5094685;28;20043;-65
2022/09/29 07:10:54;;;;;;;49.47;38.22;;;7.90;99.90;;;;;;5077888;28;20051;-65
2022/09/29 07:13:21;;;;;;;47.72;34.50;;;8.10;99.90;;;;;;5077077;28;20059;-65
2022/09/29 07:15:47;;;;;;;50.08;35.85;;;8.10;99.90;;;;;;5077272;28;20074;-66
2022/09/29 07:18:13;;;;;;;40.92;29.80;;;8.20;99.90;;;;;;5076606;28;20473;-66
2022/09/29 07:20:39;;;;;;;30.45;25.73;;;9.00;99.90;;;;;;5076902;28;20051;-65
2022/09/29 07:23:09;;;;;;;31.95;25.17;;;8.70;99.90;;;;;;5077399;28;20036;-65
2022/09/29 07:25:34;;;;;;;37.15;27.20;;;8.70;99.90;;;;;;5077460;28;20405;-65
2022/09/29 07:28:01;;;;;;;31.50;23.45;;;9.10;99.90;;;;;;5078291;28;20040;-65
2022/09/29 07:30:26;;;;;;;24.90;21.88;;;9.10;99.90;;;;;;5060421;28;20036;-65
2022/09/29 07:32:56;;;;;;;27.52;22.83;;;9.30;99.90;;;;;;5044307;28;20063;-66
2022/09/29 07:35:22;;;;;;;23.17;18.95;;;9.40;99.90;;;;;;5078179;28;20553;-65
2022/09/29 07:37:53;;;;;;;22.42;17.63;;;9.70;99.90;;;;;;5076939;28;20093;-65
2022/09/29 07:40:22;;;;;;;26.00;20.40;;;9.60;99.90;;;;;;5064655;28;20047;-65
2022/09/29 07:42:49;;;;;;;24.40;17.88;;;10.10;99.90;;;;;;5078546;28;20199;-65
2022/09/29 07:45:16;;;;;;;22.77;16.83;;;10.00;99.90;;;;;;5078629;28;20048;-64
2022/09/29 07:47:42;;;;;;;18.50;14.82;;;10.50;99.90;;;;;;5078389;28;20072;-65
2022/09/29 07:50:08;;;;;;;16.13;13.65;;;10.80;99.90;;;;;;5061304;28;20067;-65
2022/09/29 07:52:34;;;;;;;15.45;12.50;;;10.90;99.90;;;;;;5060775;28;20043;-65
2022/09/29 07:55:00;;;;;;;18.38;13.80;;;11.10;99.90;;;;;;5077451;28;20047;-65
2022/09/29 07:57:25;;;;;;;15.23;11.43;;;11.10;99.90;;;;;;5043883;28;20089;-66
2022/09/29 07:59:53;;;;;;;13.60;12.13;;;10.90;99.90;;;;;;5043894;28;20044;-65
2022/09/29 08:02:19;;;;;;;15.55;12.20;;;11.00;99.90;;;;;;5061459;28;20059;-65
2022/09/29 08:04:45;;;;;;;15.55;13.43;;;11.10;99.90;;;;;;5060834;28;20047;-65
2022/09/29 08:07:11;;;;;;;14.13;11.38;;;11.00;99.90;;;;;;5060798;28;20206;-64
2022/09/29 08:09:36;;;;;;;17.33;14.18;;;11.40;99.90;;;;;;5077383;28;20047;-64
2022/09/29 08:12:02;;;;;;;19.20;14.15;;;11.40;99.90;;;;;;5077584;28;20076;-65
2022/09/29 08:14:28;;;;;;;20.67;14.75;;;11.50;99.90;;;;;;5043440;28;20047;-65
2022/09/29 08:16:54;;;;;;;18.60;14.25;;;11.70;99.90;;;;;;5042431;28;20051;-65
2022/09/29 08:19:19;;;;;;;21.33;15.25;;;11.80;99.90;;;;;;5059996;28;20579;-66
2022/09/29 08:21:48;;;;;;;22.27;16.58;;;12.00;99.90;;;;;;5060759;28;20327;-66
2022/09/29 08:24:16;;;;;;;21.73;15.13;;;12.30;99.90;;;;;;5061511;28;20823;-65
2022/09/29 08:26:42;;;;;;;17.35;13.60;;;12.40;99.90;;;;;;5064620;28;20032;-65
2022/09/29 08:29:08;;;;;;;15.00;12.68;;;12.80;99.90;;;;;;5063828;28;20972;-65
2022/09/29 08:31:34;;;;;;;14.63;12.25;;;13.30;99.90;;;;;;5097842;28;20039;-67
2022/09/29 08:33:59;;;;;;;14.13;12.57;;;13.50;99.90;;;;;;5081827;28;20499;-67
2022/09/29 08:36:26;;;;;;;13.18;10.88;;;13.40;99.90;;;;;;5080780;28;20056;-67
2022/09/29 08:38:53;;;;;;;14.32;11.05;;;13.40;99.90;;;;;;5063951;28;20055;-67
2022/09/29 08:41:40;;;;;;;14.68;11.60;;;13.50;99.90;;;;;;5081144;28;20101;-66
2022/09/29 08:44:18;;;;;;;18.63;13.48;;;13.70;99.90;;;;;;5079862;28;20044;-66
2022/09/29 08:46:56;;;;;;;21.63;16.40;;;13.50;99.90;;;;;;5081147;28;20051;-66
2022/09/29 08:49:28;;;;;;;19.58;15.77;;;13.20;99.90;;;;;;5081462;28;20798;-73
2022/09/29 08:52:01;;;;;;;19.90;16.13;;;13.10;99.90;;;;;;5081880;28;20052;-66
2022/09/29 08:54:32;;;;;;;;;;;13.20;99.90;;;;;;5081310;28;20095;-65
2022/09/29 08:57:00;;;;;;;22.20;16.83;;;13.20;99.90;;;;;;5080486;28;19927;-65
2022/09/29 08:59:28;;;;;;;22.90;16.38;;;13.20;99.90;;;;;;5081128;28;20075;-66
2022/09/29 09:02:35;;;;;;;19.52;16.80;;;13.40;99.90;;;;;;5080898;28;20039;-66
2022/09/29 09:05:27;;;;;;;25.08;16.90;;;13.70;99.90;;;;;;5081289;28;20398;-66
2022/09/29 09:08:02;;;;;;;23.33;16.95;;;13.80;99.90;;;;;;5081458;28;20043;-66
2022/09/29 09:10:33;;;;;;;18.33;14.70;;;13.90;99.90;;;;;;5081039;28;20120;-65
2022/09/29 09:13:19;;;;;;;19.75;15.48;;;14.60;99.90;;;;;;5081101;28;20489;-66
2022/09/29 09:16:12;;;;;;;14.40;12.90;;;14.90;99.90;;;;;;5080623;28;20138;-65
2022/09/29 09:18:54;;;;;;;13.38;10.85;;;15.30;99.90;;;;;;5075036;28;20052;-67
2022/09/29 09:21:27;;;;;;;12.70;11.40;;;15.30;99.90;;;;;;5080604;28;20506;-66
2022/09/29 09:24:03;;;;;;;10.27;9.27;;;15.20;99.90;;;;;;5080720;28;20406;-67
2022/09/29 09:26:41;;;;;;;9.55;8.65;;;14.90;99.90;;;;;;5080316;28;20482;-65
2022/09/29 09:29:33;;;;;;;9.57;8.68;;;15.00;99.90;;;;;;5080117;28;20436;-65
2022/09/29 09:32:11;;;;;;;11.23;9.40;;;15.20;99.90;;;;;;5062850;28;20040;-66
2022/09/29 09:34:54;;;;;;;10.90;8.23;;;15.50;99.90;;;;;;5079120;28;20397;-66
2022/09/29 09:37:24;;;;;;;9.50;8.60;;;16.00;99.90;;;;;;5078182;28;20064;-66
2022/09/29 09:40:08;;;;;;;9.52;8.57;;;16.50;99.90;;;;;;5080314;28;20071;-65
2022/09/29 09:42:38;;;;;;;9.60;8.70;;;16.60;99.90;;;;;;5079155;28;20046;-66
2022/09/29 09:45:22;;;;;;;9.65;8.85;;;16.90;99.90;;;;;;5078661;28;20044;-66
2022/09/29 09:47:52;;;;;;;11.18;8.88;;;16.90;99.90;;;;;;5078706;28;20043;-66
2022/09/29 09:50:21;;;;;;;8.98;8.07;;;17.20;99.90;;;;;;5079841;28;20044;-65
2022/09/29 09:52:52;;;;;;;9.32;8.20;;;17.40;99.90;;;;;;5080057;28;20438;-65
2022/09/29 09:55:20;;;;;;;8.70;7.90;;;17.70;99.90;;;;;;5061945;28;20484;-67
2022/09/29 09:57:50;;;;;;;8.18;7.25;;;17.70;99.90;;;;;;5079165;28;20055;-67
2022/09/29 10:00:37;;;;;;;7.38;6.63;;;18.20;99.90;;;;;;5081479;28;20047;-66
2022/09/29 10:03:06;;;;;;;6.95;6.03;;;18.40;99.90;;;;;;5080959;28;20040;-66
2022/09/29 10:05:37;;;;;;;8.15;7.25;;;18.40;99.90;;;;;;5081097;28;20044;-64
2022/09/29 10:08:09;;;;;;;6.95;6.25;;;18.10;99.90;;;;;;5063767;28;20040;-65
2022/09/29 10:10:35;;;;;;;8.00;5.85;;;18.10;99.90;;;;;;5097033;28;20040;-65
2022/09/29 10:13:08;;;;;;;6.47;5.88;;;18.00;99.90;;;;;;5079223;28;20051;-64
2022/09/29 10:16:18;;;;;;;7.53;6.72;;;17.90;99.90;;;;;;5079145;28;20440;-65
2022/09/29 10:18:51;;;;;;;8.45;6.35;;;17.50;99.90;;;;;;5073258;28;20340;-63
2022/09/29 10:21:35;;;;;;;;;;;17.60;99.90;;;;;;5062415;28;20072;-64
2022/09/29 10:24:03;;;;;;;3.60;2.58;;;17.50;99.90;;;;;;5078566;28;19924;-64
2022/09/29 10:26:34;;;;;;;3.40;2.50;;;17.30;99.90;;;;;;5045809;28;20500;-66
2022/09/29 10:29:20;;;;;;;4.20;3.13;;;16.90;99.90;;;;;;5078969;28;20043;-64
2022/09/29 10:32:08;;;;;;;3.70;3.03;;;16.70;99.90;;;;;;5078447;28;20039;-65
2022/09/29 10:34:40;;;;;;;4.07;2.60;;;16.50;99.90;;;;;;5079423;28;20036;-65
2022/09/29 10:37:22;;;;;;;2.80;2.17;;;16.80;99.90;;;;;;5078108;28;20117;-64
2022/09/29 10:39:49;;;;;;;2.53;2.00;;;17.00;99.90;;;;;;5078389;28;20102;-65
2022/09/29 10:42:20;;;;;;;3.28;2.10;;;17.50;99.90;;;;;;5078919;28;20058;-65
2022/09/29 10:45:17;;;;;;;3.08;2.60;;;17.70;99.90;;;;;;5078608;28;20051;-66
2022/09/29 10:48:05;;;;;;;2.67;1.58;;;17.60;99.90;;;;;;5046147;28;20048;-67
2022/09/29 10:50:35;;;;;;;2.00;1.30;;;17.50;99.90;;;;;;5078733;28;20048;-66
2022/09/29 10:53:05;;;;;;;3.95;1.75;;;16.90;99.90;;;;;;5093642;28;20272;-65
2022/09/29 10:55:33;;;;;;;2.20;1.30;;;16.60;99.90;;;;;;5078517;28;20390;-65
2022/09/29 10:58:05;;;;;;;1.50;0.85;;;17.30;99.90;;;;;;5076217;28;20043;-65
2022/09/29 11:00:37;;;;;;;1.30;1.17;;;18.40;99.90;;;;;;5078741;28;20066;-65
2022/09/29 11:03:25;;;;;;;1.55;1.08;;;18.80;99.90;;;;;;5078456;28;20039;-66
2022/09/29 11:06:00;;;;;;;2.70;1.40;;;18.20;99.90;;;;;;5078878;28;20044;-65
2022/09/29 11:08:26;;;;;;;1.85;1.00;;;17.90;99.90;;;;;;5079737;28;20043;-65
2022/09/29 11:11:26;;;;;;;2.00;1.48;;;17.50;99.90;;;;;;5047006;28;20086;-65
2022/09/29 11:13:52;;;;;;;1.95;1.30;;;17.00;99.90;;;;;;5068350;28;20056;-65
2022/09/29 11:16:33;;;;;;;1.58;0.55;;;17.40;99.90;;;;;;5079724;28;20320;-66
2022/09/29 11:19:12;;;;;;;1.52;0.50;;;17.20;99.90;;;;;;5078495;28;20043;-65
2022/09/29 11:21:40;;;;;;;1.10;0.40;;;17.20;99.90;;;;;;5077800;28;20097;-65
2022/09/29 11:24:25;;;;;;;2.47;0.70;;;18.00;99.90;;;;;;5077707;28;20044;-65
2022/09/29 11:27:15;;;;;;;1.15;0.75;;;19.00;99.90;;;;;;5078077;28;20044;-66
2022/09/29 11:29:47;;;;;;;1.75;0.55;;;19.50;99.90;;;;;;5078679;28;20120;-65
2022/09/29 11:32:39;;;;;;;2.58;0.40;;;19.30;99.90;;;;;;5079035;28;20396;-65
2022/09/29 11:35:20;;;;;;;0.90;0.30;;;18.90;99.90;;;;;;5077602;28;20044;-65
2022/09/29 11:37:58;;;;;;;1.92;0.40;;;19.50;99.90;;;;;;5077590;28;20059;-65
2022/09/29 11:40:46;;;;;;;1.58;0.52;;;20.10;99.90;;;;;;5076372;28;20126;-66
2022/09/29 11:43:37;;;;;;;1.67;0.40;;;20.40;99.90;;;;;;5076915;28;20546;-66
2022/09/29 11:46:12;;;;;;;0.77;0.20;;;20.80;99.90;;;;;;5077736;28;20634;-64
2022/09/29 11:49:03;;;;;;;0.88;0.30;;;21.00;99.90;;;;;;5077298;28;20509;-65
2022/09/29 11:51:51;;;;;;;0.98;0.30;;;20.50;99.90;;;;;;5076923;28;20119;-65
2022/09/29 11:54:45;;;;;;;1.13;0.30;;;20.50;99.90;;;;;;5077455;28;20397;-65
2022/09/29 11:57:11;;;;;;;1.30;0.30;;;20.60;99.90;;;;;;5078024;28;20043;-65
2022/09/29 11:59:52;;;;;;;0.70;0.20;;;20.80;99.90;;;;;;5078760;28;20508;-65
2022/09/29 12:02:36;;;;;;;1.60;0.40;;;20.60;99.90;;;;;;5062742;28;20375;-66
2022/09/29 12:05:04;;;;;;;1.48;0.20;;;20.70;99.90;;;;;;5076605;28;20058;-65
2022/09/29 12:07:56;;;;;;;0.85;0.40;;;20.90;99.90;;;;;;5075809;28;20115;-65
2022/09/29 12:10:35;;;;;;;0.82;0.20;;;20.90;94.00;;;;;;5076521;28;20237;-65
2022/09/29 12:13:21;;;;;;;1.25;0.20;;;20.60;97.30;;;;;;5078236;28;20051;-65
2022/09/29 12:15:57;;;;;;;1.42;0.50;;;20.60;99.90;;;;;;5077051;28;20348;-65
2022/09/29 12:18:31;;;;;;;0.93;0.20;;;20.70;98.60;;;;;;5076979;28;20040;-65
2022/09/29 12:20:57;;;;;;;1.63;0.20;;;20.30;96.50;;;;;;5077452;28;20052;-65
2022/09/29 12:23:27;;;;;;;0.75;0.10;;;19.60;96.70;;;;;;5076787;28;20048;-66
2022/09/29 12:26:03;;;;;;;0.68;0.10;;;18.90;99.90;;;;;;5076603;28;20067;-65
2022/09/29 12:29:07;;;;;;;0.68;0.10;;;18.40;99.90;;;;;;5077409;28;20115;-64
2022/09/29 12:31:39;;;;;;;0.95;0.10;;;17.80;99.90;;;;;;5060315;28;20078;-67
2022/09/29 12:34:16;;;;;;;0.50;0.00;;;17.30;99.90;;;;;;5061841;28;20139;-64
2022/09/29 12:37:01;;;;;;;0.75;0.40;;;16.70;99.90;;;;;;5061798;28;20503;-65
2022/09/29 12:40:20;;;;;;;0.38;0.00;;;16.50;99.90;;;;;;5078653;28;20845;-66
2022/09/29 12:42:53;;;;;;;0.90;0.00;;;16.20;99.90;;;;;;5019528;28;20041;-66
2022/09/29 12:45:47;;;;;;;1.00;0.00;;;16.30;99.90;;;;;;5070740;28;20052;-66
2022/09/29 12:48:44;;;;;;;0.28;0.00;;;16.20;99.90;;;;;;5076964;28;20044;-64
2022/09/29 12:51:41;;;;;;;1.02;0.00;;;16.00;99.90;;;;;;5076352;28;20150;-65
2022/09/29 12:54:31;;;;;;;0.20;0.00;;;16.10;99.90;;;;;;5071730;28;20645;-64
2022/09/29 12:57:03;;;;;;;0.30;0.00;;;16.10;99.90;;;;;;5077296;28;20078;-65
2022/09/29 12:59:55;;;;;;;1.40;0.00;;;16.20;99.90;;;;;;5077402;28;20043;-66
2022/09/29 13:02:21;;;;;;;0.35;0.00;;;16.20;99.90;;;;;;5077504;28;20135;-66
2022/09/29 13:05:23;;;;;;;0.30;0.00;;;16.60;99.90;;;;;;5076520;28;20072;-65